Galveston Bay — WX9281 — position and weather

sailwx.info

Track history (hours):
 
Tides and Currents Weather Stations Pressure Air Temp Water Temp Dewpoint Dewpoint Depression Visibility Wind Speed Wind Dir Waves Ship Positions

Galveston Bay

Owner: Alpha VesselCo, LLC, Suffolk, VA. More information available from US FCC via Universal Licensing System and Coast Guard Vessel Documentation Center.

Last reported at 2018-May-17 02:30 UTC. Time now 2018-May-20 11:36 UTC.
Position N 29°29' W 092°22'.

Length 49 m; draft 3.5 m.

Type: Fishing. MMSI: 367108840.

Date/timePositionNaut miles runAvg speedWind from/ knotsBaromVisibWave heightAir tempDewpointWater temp
2018-May-17 02:30N 29°29' W 092°22'6 3.6
2018-May-17 00:55N 29°27' W 092°16'6 3.1
2018-May-16 23:06N 29°28' W 092°10'0 0.5
2018-May-16 23:00N 29°28' W 092°10'0 0.2
2018-May-16 22:29N 29°28' W 092°10'4 8.2
2018-May-16 22:00N 29°27' W 092°14'611.5
2018-May-16 21:29N 29°28' W 092°21'12 1.5
2018-May-16 13:15N 29°26' W 092°07'13 5.6
2018-May-16 10:54N 29°37' W 092°00'3 6.7
2018-May-16 10:30N 29°39' W 092°02'3 5.6
2018-May-16 09:59N 29°42' W 092°04'4 6.5
2018-May-16 09:27N 29°44' W 092°07'32 1.6
2018-May-15 14:20N 29°33' W 092°41'1 3.4
2018-May-15 14:00N 29°34' W 092°39'0 0.5
2018-May-15 13:28N 29°33' W 092°39'0 0.7
2018-May-15 12:59N 29°34' W 092°39'0 0.4
2018-May-15 12:30N 29°33' W 092°40'29 1.4
2018-May-14 15:11N 29°20' W 092°10'211.7
2018-May-14 15:00N 29°21' W 092°12'612.2
2018-May-14 14:29N 29°23' W 092°19'4 4.3
2018-May-14 13:29N 29°25' W 092°24'511.4
2018-May-14 13:00N 29°27' W 092°29'3 5.7
2018-May-14 12:28N 29°30' W 092°30'3 6.8
2018-May-14 12:00N 29°31' W 092°34'3 6.2
2018-May-14 11:28N 29°33' W 092°37'1 2.4
2018-May-14 11:00N 29°33' W 092°36'4 2.3
2018-May-14 09:22N 29°33' W 092°31'0 0.0
2018-May-14 08:49N 29°33' W 092°31'  
2018-May-10 11:56N 29°33' W 092°40'0 0.6
2018-May-10 11:27N 29°33' W 092°40'33 4.4
2018-May-10 03:58N 29°49' W 092°08'0 0.0
2018-May-10 03:28N 29°49' W 092°08'0 0.0
2018-May-10 02:58N 29°49' W 092°08'0 0.0
2018-May-10 02:28N 29°49' W 092°08'0 0.0
2018-May-10 01:58N 29°49' W 092°08'0 0.0
2018-May-10 01:28N 29°49' W 092°08'0 0.0
2018-May-10 00:58N 29°49' W 092°08'0 0.1
2018-May-10 00:28N 29°49' W 092°08'0 0.0
2018-May-09 23:55N 29°49' W 092°08'0 0.0
2018-May-09 23:28N 29°49' W 092°08'0 0.0
2018-May-09 22:58N 29°49' W 092°08'0 0.0
2018-May-09 22:28N 29°49' W 092°08'0 0.0
2018-May-09 21:58N 29°49' W 092°08'0 0.0
2018-May-09 21:22N 29°49' W 092°08'0 0.0
2018-May-09 20:58N 29°49' W 092°08'0 0.0
2018-May-09 20:28N 29°49' W 092°08'0 0.0
2018-May-09 19:58N 29°49' W 092°08'0 0.0
2018-May-09 19:28N 29°49' W 092°08'0 0.0
2018-May-09 18:58N 29°49' W 092°08'0 0.0
2018-May-09 18:30N 29°49' W 092°08'0 0.0
2018-May-09 17:54N 29°49' W 092°08'0 0.0
2018-May-09 17:07N 29°49' W 092°08'0 0.0
2018-May-09 16:52N 29°49' W 092°08'0 0.0
2018-May-09 16:28N 29°49' W 092°08'0 0.0
2018-May-09 16:00N 29°49' W 092°08'0 0.0
2018-May-09 15:31N 29°49' W 092°08'0 0.0
2018-May-09 14:58N 29°49' W 092°08'0 0.0
2018-May-09 14:31N 29°49' W 092°08'0 0.0
2018-May-09 13:58N 29°49' W 092°08'0 0.0
2018-May-09 13:31N 29°49' W 092°08'0 0.0
2018-May-09 12:58N 29°49' W 092°08'0 0.0
2018-May-09 12:28N 29°49' W 092°08'0 0.0
2018-May-09 11:58N 29°49' W 092°08'0 0.0
2018-May-09 11:27N 29°49' W 092°08'0 0.0
2018-May-09 08:43N 29°49' W 092°08'0 0.0
2018-May-09 08:16N 29°49' W 092°08'0 0.0
2018-May-09 07:01N 29°49' W 092°08'0 0.0
2018-May-09 06:49N 29°49' W 092°08'0 0.0
2018-May-09 06:31N 29°49' W 092°08'2 0.9
2018-May-09 04:42N 29°48' W 092°08'1 5.2
2018-May-09 04:30N 29°47' W 092°09'12 7.5
2018-May-09 02:58N 29°37' W 092°16'4 7.3
2018-May-09 02:29N 29°34' W 092°18'1 2.0
2018-May-09 02:00N 29°33' W 092°18'3 6.3
2018-May-09 01:30N 29°30' W 092°19'5 8.7
2018-May-09 00:59N 29°27' W 092°23'612.1
2018-May-09 00:30N 29°29' W 092°29'612.3
2018-May-09 00:00N 29°31' W 092°36'612.1
2018-May-08 23:30N 29°35' W 092°42'1 1.2
2018-May-08 23:00N 29°35' W 092°42'0 0.3
2018-May-08 22:30N 29°35' W 092°42'1 1.1
2018-May-08 21:58N 29°35' W 092°43'0 0.3
2018-May-08 21:30N 29°35' W 092°43'2 3.6
2018-May-08 21:00N 29°34' W 092°42'1 1.6
2018-May-08 20:25N 29°35' W 092°41'0 0.5
2018-May-08 19:55N 29°35' W 092°41'1 3.1
2018-May-08 19:30N 29°34' W 092°40'811.8
2018-May-08 18:51N 29°30' W 092°32'20 2.4
2018-May-08 10:37N 29°43' W 092°15'1 8.4
2018-May-08 10:30N 29°44' W 092°14'4 8.1
2018-May-08 10:00N 29°47' W 092°10'3 5.7
2018-May-08 09:26N 29°49' W 092°08'0 0.5
2018-May-08 08:58N 29°49' W 092°08'46 2.5
2018-May-07 14:45N 29°41' W 093°00'310.6
2018-May-07 14:28N 29°40' W 092°57'1 1.6
2018-May-07 13:58N 29°40' W 092°56'1 1.0
2018-May-07 13:20N 29°40' W 092°55'0 1.0
2018-May-07 12:58N 29°39' W 092°56'4 7.4
2018-May-07 12:30N 29°37' W 092°52'1 1.7
2018-May-07 12:00N 29°37' W 092°51'3 5.3
2018-May-07 11:30N 29°36' W 092°49'3 5.3
2018-May-07 10:59N 29°35' W 092°46'2 0.6
2018-May-07 08:09N 29°37' W 092°45'0 0.0
2018-May-07 08:00N 29°37' W 092°45'  
Track history (hours):
 
Tides and Currents Weather Stations Pressure Air Temp Water Temp Dewpoint Dewpoint Depression Visibility Wind Speed Wind Dir Waves Ship Positions

Galveston Bay

Owner: Alpha VesselCo, LLC, Suffolk, VA. More information available from US FCC via Universal Licensing System and Coast Guard Vessel Documentation Center.

Last reported at 2018-May-17 02:30 UTC. Time now 2018-May-20 11:36 UTC.
Position N 29°29' W 092°22'.

Length 49 m; draft 3.5 m.

Type: Fishing. MMSI: 367108840.

Date/timePositionNaut miles runAvg speedWind from/ knotsBaromVisibWave heightAir tempDewpointWater temp
2018-May-17 02:30N 29°29' W 092°22'6 3.6
2018-May-17 00:55N 29°27' W 092°16'6 3.1
2018-May-16 23:06N 29°28' W 092°10'0 0.5
2018-May-16 23:00N 29°28' W 092°10'0 0.2
2018-May-16 22:29N 29°28' W 092°10'4 8.2
2018-May-16 22:00N 29°27' W 092°14'611.5
2018-May-16 21:29N 29°28' W 092°21'12 1.5
2018-May-16 13:15N 29°26' W 092°07'13 5.6
2018-May-16 10:54N 29°37' W 092°00'3 6.7
2018-May-16 10:30N 29°39' W 092°02'3 5.6
2018-May-16 09:59N 29°42' W 092°04'4 6.5
2018-May-16 09:27N 29°44' W 092°07'32 1.6
2018-May-15 14:20N 29°33' W 092°41'1 3.4
2018-May-15 14:00N 29°34' W 092°39'0 0.5
2018-May-15 13:28N 29°33' W 092°39'0 0.7
2018-May-15 12:59N 29°34' W 092°39'0 0.4
2018-May-15 12:30N 29°33' W 092°40'29 1.4
2018-May-14 15:11N 29°20' W 092°10'211.7
2018-May-14 15:00N 29°21' W 092°12'612.2
2018-May-14 14:29N 29°23' W 092°19'4 4.3
2018-May-14 13:29N 29°25' W 092°24'511.4
2018-May-14 13:00N 29°27' W 092°29'3 5.7
2018-May-14 12:28N 29°30' W 092°30'3 6.8
2018-May-14 12:00N 29°31' W 092°34'3 6.2
2018-May-14 11:28N 29°33' W 092°37'1 2.4
2018-May-14 11:00N 29°33' W 092°36'4 2.3
2018-May-14 09:22N 29°33' W 092°31'0 0.0
2018-May-14 08:49N 29°33' W 092°31'  
2018-May-10 11:56N 29°33' W 092°40'0 0.6
2018-May-10 11:27N 29°33' W 092°40'33 4.4
2018-May-10 03:58N 29°49' W 092°08'0 0.0
2018-May-10 03:28N 29°49' W 092°08'0 0.0
2018-May-10 02:58N 29°49' W 092°08'0 0.0
2018-May-10 02:28N 29°49' W 092°08'0 0.0
2018-May-10 01:58N 29°49' W 092°08'0 0.0
2018-May-10 01:28N 29°49' W 092°08'0 0.0
2018-May-10 00:58N 29°49' W 092°08'0 0.1
2018-May-10 00:28N 29°49' W 092°08'0 0.0
2018-May-09 23:55N 29°49' W 092°08'0 0.0
2018-May-09 23:28N 29°49' W 092°08'0 0.0
2018-May-09 22:58N 29°49' W 092°08'0 0.0
2018-May-09 22:28N 29°49' W 092°08'0 0.0
2018-May-09 21:58N 29°49' W 092°08'0 0.0
2018-May-09 21:22N 29°49' W 092°08'0 0.0
2018-May-09 20:58N 29°49' W 092°08'0 0.0
2018-May-09 20:28N 29°49' W 092°08'0 0.0
2018-May-09 19:58N 29°49' W 092°08'0 0.0
2018-May-09 19:28N 29°49' W 092°08'0 0.0
2018-May-09 18:58N 29°49' W 092°08'0 0.0
2018-May-09 18:30N 29°49' W 092°08'0 0.0
2018-May-09 17:54N 29°49' W 092°08'0 0.0
2018-May-09 17:07N 29°49' W 092°08'0 0.0
2018-May-09 16:52N 29°49' W 092°08'0 0.0
2018-May-09 16:28N 29°49' W 092°08'0 0.0
2018-May-09 16:00N 29°49' W 092°08'0 0.0
2018-May-09 15:31N 29°49' W 092°08'0 0.0
2018-May-09 14:58N 29°49' W 092°08'0 0.0
2018-May-09 14:31N 29°49' W 092°08'0 0.0
2018-May-09 13:58N 29°49' W 092°08'0 0.0
2018-May-09 13:31N 29°49' W 092°08'0 0.0
2018-May-09 12:58N 29°49' W 092°08'0 0.0
2018-May-09 12:28N 29°49' W 092°08'0 0.0
2018-May-09 11:58N 29°49' W 092°08'0 0.0
2018-May-09 11:27N 29°49' W 092°08'0 0.0
2018-May-09 08:43N 29°49' W 092°08'0 0.0
2018-May-09 08:16N 29°49' W 092°08'0 0.0
2018-May-09 07:01N 29°49' W 092°08'0 0.0
2018-May-09 06:49N 29°49' W 092°08'0 0.0
2018-May-09 06:31N 29°49' W 092°08'2 0.9
2018-May-09 04:42N 29°48' W 092°08'1 5.2
2018-May-09 04:30N 29°47' W 092°09'12 7.5
2018-May-09 02:58N 29°37' W 092°16'4 7.3
2018-May-09 02:29N 29°34' W 092°18'1 2.0
2018-May-09 02:00N 29°33' W 092°18'3 6.3
2018-May-09 01:30N 29°30' W 092°19'5 8.7
2018-May-09 00:59N 29°27' W 092°23'612.1
2018-May-09 00:30N 29°29' W 092°29'612.3
2018-May-09 00:00N 29°31' W 092°36'612.1
2018-May-08 23:30N 29°35' W 092°42'1 1.2
2018-May-08 23:00N 29°35' W 092°42'0 0.3
2018-May-08 22:30N 29°35' W 092°42'1 1.1
2018-May-08 21:58N 29°35' W 092°43'0 0.3
2018-May-08 21:30N 29°35' W 092°43'2 3.6
2018-May-08 21:00N 29°34' W 092°42'1 1.6
2018-May-08 20:25N 29°35' W 092°41'0 0.5
2018-May-08 19:55N 29°35' W 092°41'1 3.1
2018-May-08 19:30N 29°34' W 092°40'811.8
2018-May-08 18:51N 29°30' W 092°32'20 2.4
2018-May-08 10:37N 29°43' W 092°15'1 8.4
2018-May-08 10:30N 29°44' W 092°14'4 8.1
2018-May-08 10:00N 29°47' W 092°10'3 5.7
2018-May-08 09:26N 29°49' W 092°08'0 0.5
2018-May-08 08:58N 29°49' W 092°08'46 2.5
2018-May-07 14:45N 29°41' W 093°00'310.6
2018-May-07 14:28N 29°40' W 092°57'1 1.6
2018-May-07 13:58N 29°40' W 092°56'1 1.0
2018-May-07 13:20N 29°40' W 092°55'0 1.0
2018-May-07 12:58N 29°39' W 092°56'4 7.4
2018-May-07 12:30N 29°37' W 092°52'1 1.7
2018-May-07 12:00N 29°37' W 092°51'3 5.3
2018-May-07 11:30N 29°36' W 092°49'3 5.3
2018-May-07 10:59N 29°35' W 092°46'2 0.6
2018-May-07 08:09N 29°37' W 092°45'0 0.0
2018-May-07 08:00N 29°37' W 092°45'  

Dump ship's entire track history